Time;durP1;ratioP1;P1;durP2;ratioP2;P2;SDS_P1;SDS_P2;PMS_P1;PMS_P2;Temp;Humidity;BMP_temperature;BMP_pressure;BME280_temperature;BME280_humidity;BME280_pressure;Samples;Min_cycle;Max_cycle;Signal;HPM_P1;HPM_P2
2021/12/22 00:00:42;;;;;;;8.70;7.68;;;;;;;;;;5043211;28;21332;-71
2021/12/22 00:03:09;;;;;;;8.63;7.30;;;;;;;;;;5045768;28;20218;-72
2021/12/22 00:05:44;;;;;;;7.03;6.32;;;;;;;;;;5036375;28;20199;-72
2021/12/22 00:08:12;;;;;;;7.93;6.82;;;;;;;;;;5040750;28;20653;-71
2021/12/22 00:10:39;;;;;;;9.82;7.18;;;;;;;;;;5044451;28;20286;-73
2021/12/22 00:13:06;;;;;;;9.73;8.23;;;;;;;;;;5041657;28;20678;-72
2021/12/22 00:15:33;;;;;;;8.60;6.85;;;;;;;;;;5041548;28;20202;-72
2021/12/22 00:18:01;;;;;;;10.95;7.65;;;;;;;;;;5042287;28;20206;-71
2021/12/22 00:20:28;;;;;;;7.45;6.55;;;;;;;;;;5039583;28;20222;-71
2021/12/22 00:22:56;;;;;;;8.82;6.70;;;;;;;;;;5040635;28;20703;-71
2021/12/22 00:25:25;;;;;;;9.50;7.65;;;;;;;;;;5044085;28;20590;-74
2021/12/22 00:27:53;;;;;;;7.93;5.85;;;;;;;;;;5051295;28;20214;-71
2021/12/22 00:30:20;;;;;;;7.28;6.10;;;;;;;;;;5049161;28;20674;-74
2021/12/22 00:32:51;;;;;;;8.45;6.45;;;;;;;;;;5047134;28;20605;-70
2021/12/22 00:35:19;;;;;;;10.07;7.30;;;;;;;;;;5043423;28;20256;-73
2021/12/22 00:37:46;;;;;;;10.63;7.15;;;;;;;;;;5040438;28;20261;-72
2021/12/22 00:40:15;;;;;;;8.35;6.00;;;;;;;;;;5044688;28;20198;-71
2021/12/22 00:42:42;;;;;;;7.57;5.93;;;;;;;;;;5050274;28;20288;-73
2021/12/22 00:45:10;;;;;;;7.55;6.13;;;;;;;;;;5049954;28;20689;-71
2021/12/22 00:47:37;;;;;;;7.55;6.53;;;;;;;;;;5047913;28;20210;-71
2021/12/22 00:50:06;;;;;;;8.57;6.05;;;;;;;;;;5056729;28;20194;-71
2021/12/22 00:52:33;;;;;;;7.10;6.40;;;;;;;;;;5063167;28;20559;-71
2021/12/22 00:55:00;;;;;;;6.97;6.20;;;;;;;;;;5044279;28;20654;-71
2021/12/22 00:57:31;;;;;;;7.38;6.15;;;;;;;;;;5055263;28;20254;-71
2021/12/22 00:59:58;;;;;;;9.10;6.43;;;;;;;;;;5056595;28;20222;-72
2021/12/22 01:02:25;;;;;;;7.78;6.55;;;;;;;;;;5039961;28;20594;-73
2021/12/22 01:04:52;;;;;;;7.00;6.00;;;;;;;;;;5051809;28;20561;-71
2021/12/22 01:07:19;;;;;;;7.50;6.70;;;;;;;;;;5053662;28;20195;-72
2021/12/22 01:09:46;;;;;;;7.55;5.70;;;;;;;;;;5048346;28;20365;-71
2021/12/22 01:12:13;;;;;;;8.02;6.35;;;;;;;;;;5050543;28;20199;-71
2021/12/22 01:14:42;;;;;;;7.13;6.00;;;;;;;;;;5052416;28;20430;-71
2021/12/22 01:17:11;;;;;;;7.10;6.22;;;;;;;;;;5045244;28;20196;-71
2021/12/22 01:19:45;;;;;;;7.57;6.15;;;;;;;;;;5049420;28;20190;-71
2021/12/22 01:22:23;;;;;;;9.82;6.90;;;;;;;;;;5053833;28;20347;-71
2021/12/22 01:24:59;;;;;;;7.60;6.20;;;;;;;;;;5044072;28;20204;-72
2021/12/22 01:27:28;;;;;;;6.80;6.10;;;;;;;;;;5064097;28;20658;-71
2021/12/22 01:29:56;;;;;;;6.95;6.20;;;;;;;;;;5067876;28;20293;-72
2021/12/22 01:32:25;;;;;;;6.63;5.80;;;;;;;;;;5047634;28;20214;-71
2021/12/22 01:34:52;;;;;;;6.32;5.72;;;;;;;;;;5065209;28;20194;-72
2021/12/22 01:37:19;;;;;;;7.45;6.40;;;;;;;;;;5051305;28;20663;-71
2021/12/22 01:39:46;;;;;;;7.82;6.60;;;;;;;;;;5045943;28;20195;-71
2021/12/22 01:42:13;;;;;;;7.65;5.65;;;;;;;;;;5041423;28;20662;-71
2021/12/22 01:44:58;;;;;;;8.75;6.25;;;;;;;;;;5045619;28;22044;-71
2021/12/22 01:50:12;;;;;;;7.55;6.53;;;;;;;;;;5049103;28;20535;-73
2021/12/22 01:52:39;;;;;;;8.75;6.45;;;;;;;;;;5057552;28;20555;-71
2021/12/22 01:55:14;;;;;;;5.97;5.43;;;;;;;;;;5046480;28;20655;-71
2021/12/22 01:57:45;;;;;;;8.30;5.20;;;;;;;;;;5057036;28;20202;-71
2021/12/22 02:00:13;;;;;;;5.10;4.60;;;;;;;;;;5056905;28;20694;-71
2021/12/22 02:02:42;;;;;;;7.90;6.60;;;;;;;;;;5042758;28;20223;-74
2021/12/22 02:05:09;;;;;;;8.40;6.30;;;;;;;;;;5048583;28;20199;-72
2021/12/22 02:07:36;;;;;;;7.75;5.72;;;;;;;;;;5045465;28;20207;-71
2021/12/22 02:10:17;;;;;;;8.55;6.35;;;;;;;;;;5044889;28;20222;-74
2021/12/22 02:12:48;;;;;;;6.53;5.85;;;;;;;;;;5041010;28;20206;-72
2021/12/22 02:15:15;;;;;;;7.07;6.38;;;;;;;;;;5041870;28;20202;-71
2021/12/22 02:17:44;;;;;;;6.53;5.13;;;;;;;;;;5043139;28;20461;-71
2021/12/22 02:20:13;;;;;;;7.15;5.03;;;;;;;;;;5046359;28;20194;-70
2021/12/22 02:22:42;;;;;;;6.75;5.78;;;;;;;;;;5043854;28;20686;-72
2021/12/22 02:25:15;;;;;;;7.03;6.30;;;;;;;;;;5041863;28;20195;-72
2021/12/22 02:27:47;;;;;;;7.72;6.53;;;;;;;;;;5046666;28;20277;-70
2021/12/22 02:30:21;;;;;;;6.32;5.07;;;;;;;;;;5046662;28;20650;-72
2021/12/22 02:33:20;;;;;;;7.22;6.05;;;;;;;;;;5047585;28;20664;-72
2021/12/22 02:36:05;;;;;;;7.18;5.80;;;;;;;;;;5038826;28;20249;-71
2021/12/22 02:38:33;;;;;;;7.90;6.93;;;;;;;;;;5040873;28;20219;-72
2021/12/22 02:41:00;;;;;;;7.10;6.25;;;;;;;;;;5046097;28;20689;-71
2021/12/22 02:43:31;;;;;;;7.55;5.95;;;;;;;;;;5051707;28;20590;-72
2021/12/22 02:45:59;;;;;;;6.07;5.47;;;;;;;;;;5060625;28;20696;-73
2021/12/22 02:48:29;;;;;;;6.43;5.35;;;;;;;;;;5054040;28;20199;-72
2021/12/22 02:50:59;;;;;;;8.80;6.55;;;;;;;;;;5052134;28;20705;-71
2021/12/22 02:53:31;;;;;;;6.28;5.70;;;;;;;;;;5060819;28;20209;-72
2021/12/22 02:56:03;;;;;;;8.15;6.55;;;;;;;;;;5060882;28;20204;-71
2021/12/22 02:58:43;;;;;;;7.70;5.75;;;;;;;;;;5070089;28;20288;-72
2021/12/22 03:01:25;;;;;;;7.07;5.15;;;;;;;;;;5057178;28;20616;-71
2021/12/22 03:03:57;;;;;;;6.18;5.57;;;;;;;;;;5036648;28;20225;-71
2021/12/22 03:06:32;;;;;;;6.45;5.80;;;;;;;;;;5052537;28;20245;-71
2021/12/22 03:09:00;;;;;;;6.45;5.25;;;;;;;;;;5041231;28;20597;-71
2021/12/22 03:11:27;;;;;;;9.07;6.15;;;;;;;;;;5054174;28;20853;-71
2021/12/22 03:13:54;;;;;;;7.00;6.15;;;;;;;;;;5051235;28;20226;-71
2021/12/22 03:19:47;;;;;;;6.60;5.53;;;;;;;;;;5048160;28;20190;-73
2021/12/22 03:22:18;;;;;;;8.00;5.68;;;;;;;;;;5051470;28;20232;-72
2021/12/22 03:24:47;;;;;;;7.35;6.13;;;;;;;;;;5053307;28;20217;-72
2021/12/22 03:27:15;;;;;;;5.78;5.07;;;;;;;;;;5065618;28;20206;-72
2021/12/22 03:29:42;;;;;;;8.07;5.55;;;;;;;;;;5067369;28;20194;-71
2021/12/22 03:32:09;;;;;;;8.80;6.47;;;;;;;;;;5051298;28;20210;-71
2021/12/22 03:34:37;;;;;;;8.15;6.63;;;;;;;;;;5056447;28;20187;-72
2021/12/22 03:37:04;;;;;;;7.40;5.40;;;;;;;;;;5045195;28;20207;-71
2021/12/22 03:39:33;;;;;;;7.78;5.22;;;;;;;;;;5049992;28;20203;-72
2021/12/22 03:42:00;;;;;;;7.05;6.28;;;;;;;;;;5054115;28;20191;-73
2021/12/22 03:44:27;;;;;;;7.00;5.05;;;;;;;;;;5050722;28;20713;-71
2021/12/22 03:46:56;;;;;;;7.95;5.82;;;;;;;;;;5050972;28;20578;-72
2021/12/22 03:49:23;;;;;;;7.57;6.30;;;;;;;;;;5054995;28;20194;-72
2021/12/22 03:51:50;;;;;;;6.85;5.85;;;;;;;;;;5056365;28;20202;-70
2021/12/22 03:54:17;;;;;;;8.43;5.68;;;;;;;;;;5054924;28;20194;-71
2021/12/22 03:56:45;;;;;;;7.63;6.43;;;;;;;;;;5061286;28;20205;-71
2021/12/22 03:59:12;;;;;;;8.25;6.20;;;;;;;;;;5051256;28;20232;-71
2021/12/22 04:01:39;;;;;;;6.45;5.05;;;;;;;;;;5052035;28;20210;-71
2021/12/22 04:04:12;;;;;;;7.70;5.30;;;;;;;;;;5055121;28;20220;-71
2021/12/22 04:06:41;;;;;;;7.75;6.68;;;;;;;;;;5046772;28;20239;-70
2021/12/22 04:09:08;;;;;;;5.80;5.18;;;;;;;;;;5050733;28;20231;-70
2021/12/22 04:11:35;;;;;;;7.10;5.45;;;;;;;;;;5051004;28;20206;-71
2021/12/22 04:14:04;;;;;;;6.10;5.50;;;;;;;;;;5050959;28;20191;-71
2021/12/22 04:16:31;;;;;;;7.20;5.88;;;;;;;;;;5048662;28;20201;-71
2021/12/22 04:18:58;;;;;;;8.70;6.13;;;;;;;;;;5066267;28;20212;-71
2021/12/22 04:21:25;;;;;;;10.30;6.35;;;;;;;;;;5053204;28;20663;-72
2021/12/22 04:23:52;;;;;;;7.40;5.57;;;;;;;;;;5050672;28;20218;-71
2021/12/22 04:26:19;;;;;;;6.10;5.50;;;;;;;;;;5060009;28;20205;-71
2021/12/22 04:28:46;;;;;;;6.38;5.35;;;;;;;;;;5066177;28;20565;-71
2021/12/22 04:31:15;;;;;;;8.07;5.55;;;;;;;;;;5051081;28;20578;-72
2021/12/22 04:33:42;;;;;;;7.95;6.00;;;;;;;;;;5050364;28;20202;-70
2021/12/22 04:36:09;;;;;;;7.55;6.18;;;;;;;;;;5044956;28;20198;-70
2021/12/22 04:38:36;;;;;;;11.75;6.88;;;;;;;;;;5067077;28;20205;-70
2021/12/22 04:41:03;;;;;;;8.05;6.50;;;;;;;;;;5055749;28;20198;-71
2021/12/22 04:43:30;;;;;;;8.93;7.10;;;;;;;;;;5048709;28;20223;-71
2021/12/22 04:45:57;;;;;;;9.80;7.18;;;;;;;;;;5049223;28;20205;-72
2021/12/22 04:48:25;;;;;;;8.75;6.22;;;;;;;;;;5059456;28;20209;-70
2021/12/22 04:50:52;;;;;;;7.50;6.43;;;;;;;;;;5041563;28;20203;-71
2021/12/22 04:53:23;;;;;;;9.52;6.22;;;;;;;;;;5059330;28;20195;-71
2021/12/22 04:55:50;;;;;;;8.10;6.20;;;;;;;;;;5065091;28;20202;-71
2021/12/22 04:58:17;;;;;;;8.38;6.70;;;;;;;;;;5056997;28;20198;-70
2021/12/22 05:00:45;;;;;;;7.30;5.75;;;;;;;;;;5048124;28;20625;-70
2021/12/22 05:03:12;;;;;;;8.90;6.82;;;;;;;;;;5057534;28;20222;-71
2021/12/22 05:05:40;;;;;;;9.13;6.22;;;;;;;;;;5051685;28;20214;-71
2021/12/22 05:08:07;;;;;;;10.98;7.03;;;;;;;;;;5051868;28;20199;-70
2021/12/22 05:10:34;;;;;;;8.02;6.13;;;;;;;;;;5049579;28;20206;-71
2021/12/22 05:13:01;;;;;;;8.95;6.60;;;;;;;;;;5048794;28;20277;-71
2021/12/22 05:15:36;;;;;;;9.45;6.15;;;;;;;;;;5047268;28;20207;-71
2021/12/22 05:18:22;;;;;;;10.93;7.40;;;;;;;;;;5054302;28;20293;-71
2021/12/22 05:20:50;;;;;;;11.23;6.50;;;;;;;;;;5053569;28;20245;-71
2021/12/22 05:23:18;;;;;;;6.47;5.63;;;;;;;;;;5069784;28;20696;-71
2021/12/22 05:25:45;;;;;;;9.88;6.55;;;;;;;;;;5058386;28;20191;-72
2021/12/22 05:28:12;;;;;;;9.18;6.90;;;;;;;;;;5056006;28;20570;-71
2021/12/22 05:30:39;;;;;;;8.85;5.93;;;;;;;;;;5045841;28;20203;-73
2021/12/22 05:33:06;;;;;;;10.77;7.28;;;;;;;;;;5049775;28;20205;-71
2021/12/22 05:35:33;;;;;;;11.07;7.15;;;;;;;;;;5045949;28;20207;-70
2021/12/22 05:38:01;;;;;;;7.68;6.70;;;;;;;;;;5059794;28;20206;-71
2021/12/22 05:40:29;;;;;;;8.85;6.70;;;;;;;;;;5061701;28;20673;-71
2021/12/22 05:42:57;;;;;;;10.40;7.97;;;;;;;;;;5045632;28;20202;-71
2021/12/22 05:45:24;;;;;;;9.70;7.00;;;;;;;;;;5035043;28;20223;-70
2021/12/22 05:47:52;;;;;;;10.55;6.40;;;;;;;;;;5053962;28;20207;-73
2021/12/22 05:50:20;;;;;;;9.82;6.65;;;;;;;;;;5061923;28;20623;-70
2021/12/22 05:52:47;;;;;;;9.80;7.35;;;;;;;;;;5047296;28;20191;-72
2021/12/22 05:55:15;;;;;;;8.90;6.57;;;;;;;;;;5061538;28;20209;-70
2021/12/22 05:57:42;;;;;;;9.85;6.78;;;;;;;;;;5072585;28;20209;-71
2021/12/22 06:00:10;;;;;;;9.50;6.72;;;;;;;;;;5056500;28;20576;-70
2021/12/22 06:02:37;;;;;;;8.32;7.13;;;;;;;;;;5059697;28;20661;-70
2021/12/22 06:05:04;;;;;;;9.00;6.65;;;;;;;;;;5055496;28;20581;-71
2021/12/22 06:07:31;;;;;;;14.15;8.18;;;;;;;;;;5056784;28;20573;-72
2021/12/22 06:09:58;;;;;;;9.73;6.40;;;;;;;;;;5055149;28;20544;-71
2021/12/22 06:12:27;;;;;;;10.52;7.20;;;;;;;;;;5056137;28;20206;-71
2021/12/22 06:14:54;;;;;;;10.32;7.68;;;;;;;;;;5047800;28;20518;-72
2021/12/22 06:17:21;;;;;;;10.07;7.13;;;;;;;;;;5042886;28;20206;-71
2021/12/22 06:19:48;;;;;;;11.25;7.95;;;;;;;;;;5050316;28;20195;-73
2021/12/22 06:22:15;;;;;;;11.60;8.77;;;;;;;;;;5047591;28;20209;-73
2021/12/22 06:24:42;;;;;;;10.88;7.38;;;;;;;;;;5047541;28;20207;-73
2021/12/22 06:27:09;;;;;;;12.73;7.43;;;;;;;;;;5042685;28;20253;-70
2021/12/22 06:29:38;;;;;;;9.73;7.35;;;;;;;;;;5045035;28;20194;-70
2021/12/22 06:32:05;;;;;;;8.52;6.72;;;;;;;;;;5046305;28;20211;-71
2021/12/22 06:34:32;;;;;;;9.10;7.15;;;;;;;;;;5051141;28;20227;-71
2021/12/22 06:36:59;;;;;;;9.85;7.18;;;;;;;;;;5048256;28;20669;-71
2021/12/22 06:39:26;;;;;;;10.95;7.00;;;;;;;;;;5047799;28;20298;-71
2021/12/22 06:41:53;;;;;;;10.02;6.75;;;;;;;;;;5049734;28;20243;-71
2021/12/22 06:44:23;;;;;;;9.45;7.70;;;;;;;;;;5046299;28;20225;-70
2021/12/22 06:46:51;;;;;;;8.02;7.22;;;;;;;;;;5051540;28;20191;-72
2021/12/22 06:49:19;;;;;;;11.23;6.80;;;;;;;;;;5055711;28;20199;-71
2021/12/22 06:51:46;;;;;;;10.40;6.85;;;;;;;;;;5062458;28;20228;-72
2021/12/22 06:54:14;;;;;;;9.10;6.45;;;;;;;;;;5069209;28;20201;-71
2021/12/22 06:56:41;;;;;;;11.40;8.05;;;;;;;;;;5056256;28;20226;-70
2021/12/22 06:59:08;;;;;;;8.68;6.45;;;;;;;;;;5058707;28;20199;-73
2021/12/22 07:01:36;;;;;;;10.85;6.75;;;;;;;;;;5048731;28;20202;-71
2021/12/22 07:04:04;;;;;;;8.60;6.28;;;;;;;;;;5055510;28;20233;-72
2021/12/22 07:06:32;;;;;;;9.10;6.22;;;;;;;;;;5046998;28;20199;-72
2021/12/22 07:08:59;;;;;;;10.45;6.95;;;;;;;;;;5050576;28;20655;-72
2021/12/22 07:11:27;;;;;;;10.95;7.38;;;;;;;;;;5052933;28;20232;-73
2021/12/22 07:13:54;;;;;;;7.28;6.50;;;;;;;;;;5044940;28;20196;-73
2021/12/22 07:16:21;;;;;;;8.80;6.35;;;;;;;;;;5036964;28;20200;-72
2021/12/22 07:18:48;;;;;;;6.72;6.10;;;;;;;;;;5041314;28;20203;-71
2021/12/22 07:21:16;;;;;;;9.73;6.57;;;;;;;;;;5048090;28;20210;-72
2021/12/22 07:23:44;;;;;;;9.10;7.22;;;;;;;;;;5054437;28;20194;-72
2021/12/22 07:26:13;;;;;;;7.20;5.82;;;;;;;;;;5050465;28;20226;-73
2021/12/22 07:28:41;;;;;;;10.32;6.65;;;;;;;;;;5046202;28;20355;-71
2021/12/22 07:31:08;;;;;;;8.85;6.07;;;;;;;;;;5044424;28;20198;-71
2021/12/22 07:33:35;;;;;;;8.10;6.10;;;;;;;;;;5052737;28;20195;-72
2021/12/22 07:36:04;;;;;;;7.88;6.13;;;;;;;;;;5043557;28;20192;-72
2021/12/22 07:38:35;;;;;;;8.23;5.57;;;;;;;;;;5050722;28;20514;-74
2021/12/22 07:41:03;;;;;;;8.43;6.72;;;;;;;;;;5052792;28;20201;-73
2021/12/22 07:43:31;;;;;;;11.38;6.05;;;;;;;;;;5047662;28;20562;-73
2021/12/22 07:45:58;;;;;;;6.57;5.38;;;;;;;;;;5040922;28;20218;-72
2021/12/22 07:48:25;;;;;;;7.93;7.07;;;;;;;;;;5040844;28;20682;-74
2021/12/22 07:50:54;;;;;;;8.13;6.63;;;;;;;;;;5043500;28;20647;-72
2021/12/22 07:53:21;;;;;;;6.93;6.00;;;;;;;;;;5048692;28;20206;-72
2021/12/22 07:55:52;;;;;;;6.63;5.90;;;;;;;;;;5043343;28;20210;-72
2021/12/22 08:01:23;;;;;;;5.30;4.80;;;;;;;;;;5049497;28;20195;-73
2021/12/22 08:03:50;;;;;;;6.70;5.47;;;;;;;;;;5038557;28;20202;-72
2021/12/22 08:06:17;;;;;;;8.98;5.88;;;;;;;;;;5039046;28;20210;-73
2021/12/22 08:08:44;;;;;;;7.88;4.90;;;;;;;;;;5049267;28;20206;-75
2021/12/22 08:11:13;;;;;;;7.03;6.32;;;;;;;;;;5034230;28;20195;-74
2021/12/22 08:13:40;;;;;;;8.00;6.13;;;;;;;;;;5034752;28;20207;-74
2021/12/22 08:16:07;;;;;;;8.77;5.45;;;;;;;;;;5039535;28;20201;-72
2021/12/22 08:18:34;;;;;;;7.35;5.20;;;;;;;;;;5041909;28;20202;-72
2021/12/22 08:21:01;;;;;;;7.55;5.72;;;;;;;;;;5036325;28;20207;-73
2021/12/22 08:23:28;;;;;;;7.82;7.07;;;;;;;;;;5041170;28;20210;-72
2021/12/22 08:25:56;;;;;;;7.43;6.63;;;;;;;;;;5038853;28;20534;-72
2021/12/22 08:28:24;;;;;;;5.85;5.25;;;;;;;;;;5039634;28;20191;-72
2021/12/22 08:30:51;;;;;;;9.40;6.25;;;;;;;;;;5036912;28;20237;-73
2021/12/22 08:33:22;;;;;;;8.27;6.05;;;;;;;;;;5040628;28;20202;-71
2021/12/22 08:38:54;;;;;;;9.45;6.40;;;;;;;;;;5040940;28;20198;-71
2021/12/22 08:41:22;;;;;;;8.18;5.60;;;;;;;;;;5044226;28;20199;-71
2021/12/22 08:43:51;;;;;;;9.70;6.70;;;;;;;;;;5054032;28;20210;-73
2021/12/22 08:46:18;;;;;;;9.15;6.65;;;;;;;;;;5047327;28;20215;-71
2021/12/22 08:48:45;;;;;;;9.82;6.20;;;;;;;;;;5035927;28;20191;-71
2021/12/22 08:51:12;;;;;;;6.20;5.57;;;;;;;;;;5047733;28;20203;-72
2021/12/22 08:53:39;;;;;;;9.70;6.82;;;;;;;;;;5048425;28;20206;-71
2021/12/22 08:56:07;;;;;;;11.48;7.15;;;;;;;;;;5053218;28;20250;-72
2021/12/22 08:58:34;;;;;;;12.10;8.00;;;;;;;;;;5050597;28;20615;-72
2021/12/22 09:01:03;;;;;;;11.63;7.63;;;;;;;;;;5055457;28;20293;-71
2021/12/22 09:03:30;;;;;;;11.50;8.82;;;;;;;;;;5048478;28;20215;-73
2021/12/22 09:05:57;;;;;;;9.90;7.00;;;;;;;;;;5058581;28;20226;-72
2021/12/22 09:08:24;;;;;;;11.32;7.68;;;;;;;;;;5049377;28;20202;-71
2021/12/22 09:10:51;;;;;;;9.95;7.68;;;;;;;;;;5049527;28;20201;-71
2021/12/22 09:13:19;;;;;;;12.65;8.40;;;;;;;;;;5049659;28;20244;-71
2021/12/22 09:15:46;;;;;;;13.48;8.25;;;;;;;;;;5039988;28;20222;-73
2021/12/22 09:18:15;;;;;;;10.45;8.15;;;;;;;;;;5032953;28;20207;-71
2021/12/22 09:20:43;;;;;;;13.45;8.38;;;;;;;;;;5044648;28;20202;-71
2021/12/22 09:23:10;;;;;;;13.98;9.30;;;;;;;;;;5050024;28;20647;-71
2021/12/22 09:25:37;;;;;;;11.93;8.30;;;;;;;;;;5043254;28;20767;-74
2021/12/22 09:28:06;;;;;;;11.38;8.50;;;;;;;;;;5035332;28;20203;-72
2021/12/22 09:30:36;;;;;;;14.32;8.80;;;;;;;;;;5028960;28;20933;-71
2021/12/22 09:33:03;;;;;;;12.75;8.38;;;;;;;;;;5033712;28;20209;-74
2021/12/22 09:35:31;;;;;;;15.05;9.32;;;;;;;;;;5042509;28;20202;-71
2021/12/22 09:37:58;;;;;;;14.90;9.23;;;;;;;;;;5040088;28;20712;-72
2021/12/22 09:40:25;;;;;;;10.27;7.95;;;;;;;;;;5041652;28;20658;-71
2021/12/22 09:42:53;;;;;;;15.32;9.50;;;;;;;;;;5038118;28;20647;-71
2021/12/22 09:45:23;;;;;;;13.73;8.52;;;;;;;;;;5037515;28;20690;-71
2021/12/22 09:48:04;;;;;;;11.32;7.60;;;;;;;;;;5037258;28;20665;-71
2021/12/22 09:50:44;;;;;;;7.70;6.25;;;;;;;;;;5041391;28;20229;-73
2021/12/22 09:53:11;;;;;;;11.40;8.32;;;;;;;;;;5049408;28;20195;-72
2021/12/22 09:55:38;;;;;;;11.95;7.60;;;;;;;;;;5043171;28;20557;-71
2021/12/22 09:58:06;;;;;;;9.35;6.80;;;;;;;;;;5046696;28;20215;-73
2021/12/22 10:00:35;;;;;;;10.25;7.43;;;;;;;;;;5045678;28;20696;-71
2021/12/22 10:03:03;;;;;;;12.30;7.40;;;;;;;;;;5049153;28;20297;-71
2021/12/22 10:05:30;;;;;;;11.90;6.43;;;;;;;;;;5048365;28;20653;-71
2021/12/22 10:08:08;;;;;;;11.98;7.18;;;;;;;;;;5051545;28;20613;-71
2021/12/22 10:10:36;;;;;;;13.38;7.43;;;;;;;;;;5047739;28;20289;-72
2021/12/22 10:13:07;;;;;;;11.85;7.28;;;;;;;;;;5050377;28;20198;-74
2021/12/22 10:15:36;;;;;;;9.15;6.40;;;;;;;;;;5050400;28;20209;-72
2021/12/22 10:18:10;;;;;;;12.20;7.40;;;;;;;;;;5049112;28;20194;-72
2021/12/22 10:20:38;;;;;;;8.10;6.55;;;;;;;;;;5050905;28;20729;-71
2021/12/22 10:23:19;;;;;;;13.73;7.75;;;;;;;;;;5051869;28;20195;-72
2021/12/22 10:25:51;;;;;;;8.57;6.10;;;;;;;;;;5054207;28;20294;-71
2021/12/22 10:28:19;;;;;;;10.98;7.63;;;;;;;;;;5049726;28;20397;-71
2021/12/22 10:30:47;;;;;;;11.43;7.25;;;;;;;;;;5050113;28;20210;-72
2021/12/22 10:33:16;;;;;;;8.00;6.38;;;;;;;;;;5043737;28;20286;-72
2021/12/22 10:35:44;;;;;;;8.88;6.47;;;;;;;;;;5050343;28;20646;-73
2021/12/22 10:38:13;;;;;;;8.50;7.00;;;;;;;;;;5052099;28;20662;-72
2021/12/22 10:40:42;;;;;;;7.72;6.90;;;;;;;;;;5047484;28;20265;-72
2021/12/22 10:43:10;;;;;;;9.43;6.97;;;;;;;;;;5050333;28;20203;-73
2021/12/22 10:45:38;;;;;;;8.32;6.28;;;;;;;;;;5045526;28;20222;-72
2021/12/22 10:50:56;;;;;;;8.45;6.65;;;;;;;;;;5048458;28;20509;-72
2021/12/22 10:53:23;;;;;;;11.75;6.38;;;;;;;;;;5049063;28;20685;-73
2021/12/22 10:55:52;;;;;;;9.65;7.28;;;;;;;;;;5042057;28;20203;-74
2021/12/22 10:58:21;;;;;;;8.48;7.57;;;;;;;;;;5047984;28;20203;-72
2021/12/22 11:01:00;;;;;;;8.75;7.10;;;;;;;;;;5050197;28;20674;-72
2021/12/22 11:03:33;;;;;;;8.88;6.70;;;;;;;;;;5046660;28;20202;-72
2021/12/22 11:06:02;;;;;;;8.10;6.15;;;;;;;;;;5052534;28;20239;-72
2021/12/22 11:08:29;;;;;;;6.82;6.03;;;;;;;;;;5048583;28;20586;-72
2021/12/22 11:10:58;;;;;;;6.68;5.47;;;;;;;;;;5056061;28;20663;-72
2021/12/22 11:13:26;;;;;;;9.18;6.65;;;;;;;;;;5050741;28;20639;-72
2021/12/22 11:15:54;;;;;;;5.97;5.45;;;;;;;;;;5052057;28;20653;-73
2021/12/22 11:18:27;;;;;;;10.82;6.50;;;;;;;;;;5041580;28;20629;-72
2021/12/22 11:21:11;;;;;;;7.60;6.63;;;;;;;;;;5050527;28;20199;-72
2021/12/22 11:23:38;;;;;;;6.15;5.45;;;;;;;;;;5045483;28;20206;-72
2021/12/22 11:26:07;;;;;;;8.20;5.93;;;;;;;;;;5042020;28;20235;-72
2021/12/22 11:28:34;;;;;;;9.75;6.03;;;;;;;;;;5044467;28;20203;-73
2021/12/22 11:31:02;;;;;;;7.32;5.82;;;;;;;;;;5044153;28;20237;-72
2021/12/22 11:33:30;;;;;;;8.73;5.85;;;;;;;;;;5047798;28;20599;-72
2021/12/22 11:35:57;;;;;;;11.27;6.20;;;;;;;;;;5049443;28;20244;-72
2021/12/22 11:38:26;;;;;;;8.80;6.35;;;;;;;;;;5050722;28;20230;-73
2021/12/22 11:40:56;;;;;;;6.18;5.05;;;;;;;;;;5044839;28;20682;-73
2021/12/22 11:43:25;;;;;;;6.13;5.53;;;;;;;;;;5040671;28;20218;-73
2021/12/22 11:45:53;;;;;;;7.63;6.70;;;;;;;;;;5047917;28;20224;-74
2021/12/22 11:48:20;;;;;;;6.72;5.18;;;;;;;;;;5045826;28;20202;-73
2021/12/22 11:50:48;;;;;;;7.80;6.25;;;;;;;;;;5047068;28;20206;-72
2021/12/22 11:53:16;;;;;;;7.30;6.03;;;;;;;;;;5040625;28;20198;-74
2021/12/22 11:55:44;;;;;;;9.80;6.18;;;;;;;;;;5047961;28;20696;-72
2021/12/22 11:58:16;;;;;;;5.50;5.00;;;;;;;;;;5039680;28;20203;-72
2021/12/22 12:00:45;;;;;;;8.23;5.38;;;;;;;;;;5034157;28;20226;-74
2021/12/22 12:03:28;;;;;;;6.50;5.10;;;;;;;;;;5039273;28;20210;-72
2021/12/22 12:06:03;;;;;;;6.35;5.28;;;;;;;;;;5045695;28;20222;-72
2021/12/22 12:08:34;;;;;;;6.03;5.43;;;;;;;;;;5045734;28;20202;-73
2021/12/22 12:11:01;;;;;;;5.85;5.25;;;;;;;;;;5039534;28;20583;-73
2021/12/22 12:13:38;;;;;;;8.75;6.10;;;;;;;;;;5042834;28;20579;-74
2021/12/22 12:22:09;;;;;;;6.63;4.40;;;;;;;;;;5010233;28;20233;-72
2021/12/22 12:24:38;;;;;;;10.82;6.15;;;;;;;;;;5046289;28;20281;-72
2021/12/22 12:27:20;;;;;;;11.15;5.72;;;;;;;;;;5040851;28;20980;-73
2021/12/22 12:29:57;;;;;;;8.13;5.57;;;;;;;;;;5046932;28;20198;-73
2021/12/22 12:32:43;;;;;;;7.15;5.50;;;;;;;;;;5039219;28;20598;-72
2021/12/22 12:35:26;;;;;;;6.30;5.70;;;;;;;;;;5046288;28;20255;-72
2021/12/22 12:37:57;;;;;;;9.00;6.70;;;;;;;;;;5039275;28;20194;-74
2021/12/22 12:40:24;;;;;;;13.63;6.13;;;;;;;;;;5045361;28;20547;-73
2021/12/22 12:43:00;;;;;;;6.07;5.40;;;;;;;;;;5043824;28;20207;-76
2021/12/22 12:45:43;;;;;;;8.88;5.88;;;;;;;;;;5033879;28;20619;-73
2021/12/22 12:48:26;;;;;;;6.68;5.35;;;;;;;;;;5031972;28;20238;-73
2021/12/22 12:51:12;;;;;;;5.95;4.90;;;;;;;;;;5046542;28;20234;-73
2021/12/22 12:53:42;;;;;;;6.35;5.22;;;;;;;;;;5047182;28;20206;-73
2021/12/22 12:56:10;;;;;;;10.27;5.53;;;;;;;;;;5040435;28;20207;-73
2021/12/22 12:58:51;;;;;;;6.40;5.07;;;;;;;;;;5028500;28;20257;-73
2021/12/22 13:01:18;;;;;;;5.68;5.10;;;;;;;;;;5036129;28;20667;-73
2021/12/22 13:03:49;;;;;;;6.35;5.13;;;;;;;;;;5047108;28;20203;-72
2021/12/22 13:06:16;;;;;;;6.70;5.35;;;;;;;;;;5041700;28;20341;-73
2021/12/22 13:08:46;;;;;;;6.65;5.00;;;;;;;;;;5047030;28;20649;-73
2021/12/22 13:11:13;;;;;;;6.20;5.43;;;;;;;;;;5034121;28;20210;-72
2021/12/22 13:15:45;;;;;;;5.13;4.65;;;;;;;;;;5045220;28;20206;-73
2021/12/22 13:16:40;;;;;;;4.93;4.40;;;;;;;;;;5037992;28;20511;-73
2021/12/22 13:19:07;;;;;;;5.72;4.75;;;;;;;;;;5029062;28;20685;-73
2021/12/22 13:21:34;;;;;;;5.43;4.88;;;;;;;;;;5047329;28;20207;-73
2021/12/22 13:24:03;;;;;;;5.50;4.28;;;;;;;;;;5044221;28;20983;-72
2021/12/22 13:26:30;;;;;;;5.40;4.30;;;;;;;;;;5038480;28;20249;-72
2021/12/22 13:28:57;;;;;;;5.22;4.35;;;;;;;;;;5044082;28;20203;-73
2021/12/22 13:31:24;;;;;;;7.30;5.35;;;;;;;;;;5048860;28;20666;-72
2021/12/22 13:33:54;;;;;;;5.78;5.25;;;;;;;;;;5046653;28;20202;-72
2021/12/22 13:36:22;;;;;;;5.20;4.53;;;;;;;;;;5049832;28;20651;-73
2021/12/22 13:38:54;;;;;;;6.38;4.75;;;;;;;;;;5050152;28;20324;-73
2021/12/22 13:41:26;;;;;;;5.30;4.43;;;;;;;;;;5045476;28;20674;-72
2021/12/22 13:43:57;;;;;;;4.85;4.40;;;;;;;;;;5033370;28;20655;-72
2021/12/22 13:46:25;;;;;;;4.78;4.22;;;;;;;;;;5036478;28;20214;-72
2021/12/22 13:48:53;;;;;;;9.00;5.30;;;;;;;;;;5031975;28;20203;-73
2021/12/22 13:51:22;;;;;;;6.38;4.00;;;;;;;;;;5050783;28;20613;-73
2021/12/22 13:53:49;;;;;;;5.93;5.15;;;;;;;;;;5051025;28;20211;-72
2021/12/22 13:56:17;;;;;;;6.00;4.50;;;;;;;;;;5043741;28;20198;-73
2021/12/22 13:58:47;;;;;;;6.95;4.70;;;;;;;;;;5042068;28;20885;-76
2021/12/22 14:01:19;;;;;;;4.15;3.75;;;;;;;;;;5051239;28;20218;-72
2021/12/22 14:03:47;;;;;;;6.00;4.95;;;;;;;;;;5046530;28;20199;-73
2021/12/22 14:06:20;;;;;;;4.65;4.28;;;;;;;;;;5034733;28;20598;-72
2021/12/22 14:08:47;;;;;;;4.45;4.00;;;;;;;;;;5049702;28;20583;-74
2021/12/22 14:11:31;;;;;;;5.22;4.78;;;;;;;;;;5050755;28;20677;-72
2021/12/22 14:14:19;;;;;;;4.95;4.10;;;;;;;;;;5053344;28;20195;-73
2021/12/22 14:16:46;;;;;;;5.28;4.57;;;;;;;;;;5048819;28;20225;-72
2021/12/22 14:19:15;;;;;;;5.35;4.60;;;;;;;;;;5040238;28;20218;-72
2021/12/22 14:21:42;;;;;;;4.38;3.83;;;;;;;;;;5047226;28;20199;-72
2021/12/22 14:24:10;;;;;;;7.05;4.97;;;;;;;;;;5050037;28;20547;-73
2021/12/22 14:26:46;;;;;;;6.35;4.32;;;;;;;;;;5035709;28;20525;-73
2021/12/22 14:29:14;;;;;;;3.10;2.80;;;;;;;;;;5045190;28;20555;-73
2021/12/22 14:31:55;;;;;;;5.68;4.88;;;;;;;;;;5039349;28;20219;-73
2021/12/22 14:34:22;;;;;;;4.82;4.28;;;;;;;;;;5045975;28;20533;-73
2021/12/22 14:36:50;;;;;;;6.85;4.60;;;;;;;;;;5049897;28;20203;-73
2021/12/22 14:39:17;;;;;;;5.57;4.40;;;;;;;;;;5047987;28;20286;-72
2021/12/22 14:41:44;;;;;;;5.18;4.28;;;;;;;;;;5049048;28;20651;-73
2021/12/22 14:44:20;;;;;;;4.88;4.25;;;;;;;;;;5040258;28;20210;-74
2021/12/22 14:46:48;;;;;;;4.90;4.25;;;;;;;;;;5044228;28;20468;-72
2021/12/22 14:49:16;;;;;;;5.78;4.57;;;;;;;;;;5035194;28;20199;-72
2021/12/22 14:51:43;;;;;;;6.15;4.78;;;;;;;;;;5049844;28;20286;-73
2021/12/22 14:54:11;;;;;;;7.38;4.95;;;;;;;;;;5050897;28;20198;-72
2021/12/22 14:56:40;;;;;;;6.63;5.40;;;;;;;;;;5045291;28;20658;-74
2021/12/22 14:59:07;;;;;;;4.63;4.10;;;;;;;;;;5045286;28;20629;-74
2021/12/22 15:01:36;;;;;;;5.50;4.47;;;;;;;;;;5047376;28;20218;-72
2021/12/22 15:04:03;;;;;;;5.18;4.68;;;;;;;;;;5048683;28;20198;-73
2021/12/22 15:06:30;;;;;;;4.40;4.00;;;;;;;;;;5047063;28;20222;-73
2021/12/22 15:08:58;;;;;;;5.45;4.45;;;;;;;;;;5047938;28;20289;-72
2021/12/22 15:11:26;;;;;;;4.22;3.83;;;;;;;;;;5038572;28;20203;-74
2021/12/22 15:13:54;;;;;;;4.78;4.10;;;;;;;;;;5046632;28;20662;-73